Time;durP1;ratioP1;P1;durP2;ratioP2;P2;SDS_P1;SDS_P2;PMS_P1;PMS_P2;Temp;Humidity;BMP_temperature;BMP_pressure;BME280_temperature;BME280_humidity;BME280_pressure;Samples;Min_cycle;Max_cycle;Signal;HPM_P1;HPM_P2
2024/01/14 00:00:37;;;;;;;7.07;3.17;;;;;;;;;;5093527;28;20052;-62
2024/01/14 00:03:03;;;;;;;8.23;2.67;;;;;;;;;;5093565;28;20040;-59
2024/01/14 00:05:29;;;;;;;5.07;2.72;;;;;;;;;;5091689;28;20032;-60
2024/01/14 00:07:55;;;;;;;4.22;2.13;;;;;;;;;;5093016;28;20054;-58
2024/01/14 00:10:20;;;;;;;6.80;3.38;;;;;;;;;;5092161;28;20402;-60
2024/01/14 00:12:46;;;;;;;7.88;3.72;;;;;;;;;;5092942;28;20131;-59
2024/01/14 00:15:11;;;;;;;5.68;3.28;;;;;;;;;;5092959;28;20031;-59
2024/01/14 00:17:37;;;;;;;2.22;2.03;;;;;;;;;;5093013;28;20040;-60
2024/01/14 00:20:04;;;;;;;2.78;1.77;;;;;;;;;;5093396;28;20170;-59
2024/01/14 00:22:30;;;;;;;8.57;3.38;;;;;;;;;;5092893;28;20036;-59
2024/01/14 00:24:55;;;;;;;6.55;2.90;;;;;;;;;;5093350;28;20040;-59
2024/01/14 00:27:21;;;;;;;4.78;2.70;;;;;;;;;;5093165;28;20594;-60
2024/01/14 00:29:46;;;;;;;4.13;2.50;;;;;;;;;;5091740;28;20048;-57
2024/01/14 00:32:12;;;;;;;4.57;2.60;;;;;;;;;;5092776;28;20070;-61
2024/01/14 00:34:41;;;;;;;7.38;3.28;;;;;;;;;;5093095;28;20043;-59
2024/01/14 00:37:07;;;;;;;3.33;2.70;;;;;;;;;;5092901;28;20188;-59
2024/01/14 00:39:36;;;;;;;7.50;2.97;;;;;;;;;;5092831;28;20048;-58
2024/01/14 00:42:02;;;;;;;10.02;4.10;;;;;;;;;;5092878;28;20086;-59
2024/01/14 00:44:27;;;;;;;5.50;2.53;;;;;;;;;;5092819;28;20528;-59
2024/01/14 00:46:53;;;;;;;3.45;2.70;;;;;;;;;;5092773;28;20066;-60
2024/01/14 00:49:18;;;;;;;3.85;2.50;;;;;;;;;;5091397;28;20028;-60
2024/01/14 00:51:44;;;;;;;4.95;2.88;;;;;;;;;;5092313;28;20036;-62
2024/01/14 00:54:10;;;;;;;7.85;3.70;;;;;;;;;;5092687;28;20497;-59
2024/01/14 00:56:35;;;;;;;4.75;2.85;;;;;;;;;;5090751;28;20043;-60
2024/01/14 00:59:01;;;;;;;5.88;2.65;;;;;;;;;;5091044;28;20052;-61
2024/01/14 01:01:26;;;;;;;4.80;3.17;;;;;;;;;;5091686;28;20413;-59
2024/01/14 01:03:52;;;;;;;3.58;2.15;;;;;;;;;;5091188;28;20116;-60
2024/01/14 01:06:17;;;;;;;5.90;2.75;;;;;;;;;;5090708;28;20060;-59
2024/01/14 01:08:43;;;;;;;4.43;1.88;;;;;;;;;;5092268;28;20032;-60
2024/01/14 01:11:09;;;;;;;5.82;3.10;;;;;;;;;;5092097;28;20032;-60
2024/01/14 01:13:34;;;;;;;6.95;2.80;;;;;;;;;;5092266;28;20034;-59
2024/01/14 01:16:00;;;;;;;5.30;2.55;;;;;;;;;;5091887;28;20501;-61
2024/01/14 01:18:26;;;;;;;2.67;2.13;;;;;;;;;;5091824;28;20069;-58
2024/01/14 01:20:51;;;;;;;3.08;1.95;;;;;;;;;;5091873;28;20497;-61
2024/01/14 01:23:17;;;;;;;5.35;3.47;;;;;;;;;;5090580;28;20036;-58
2024/01/14 01:25:42;;;;;;;3.63;2.13;;;;;;;;;;5091834;28;20131;-59
2024/01/14 01:28:09;;;;;;;1.65;1.27;;;;;;;;;;5091984;28;20032;-59
2024/01/14 01:30:35;;;;;;;2.97;2.03;;;;;;;;;;5091154;28;20479;-60
2024/01/14 01:33:01;;;;;;;6.32;3.28;;;;;;;;;;5091819;28;20072;-59
2024/01/14 01:35:26;;;;;;;3.50;2.65;;;;;;;;;;5091562;28;20075;-60
2024/01/14 01:37:52;;;;;;;4.40;2.97;;;;;;;;;;5090539;28;20039;-60
2024/01/14 01:40:18;;;;;;;3.30;2.13;;;;;;;;;;5091631;28;20512;-60
2024/01/14 01:42:44;;;;;;;5.30;2.50;;;;;;;;;;5089565;28;20035;-60
2024/01/14 01:45:09;;;;;;;6.35;2.67;;;;;;;;;;5091246;28;20039;-59
2024/01/14 01:47:35;;;;;;;2.58;1.83;;;;;;;;;;5090072;28;20039;-59
2024/01/14 01:50:01;;;;;;;3.67;2.00;;;;;;;;;;5069657;28;20036;-58
2024/01/14 01:52:29;;;;;;;4.72;2.13;;;;;;;;;;5086972;28;20040;-60
2024/01/14 01:54:56;;;;;;;3.95;2.38;;;;;;;;;;5091550;28;20036;-60
2024/01/14 01:57:22;;;;;;;5.32;3.10;;;;;;;;;;5091584;28;20040;-58
2024/01/14 01:59:48;;;;;;;3.22;2.15;;;;;;;;;;5089985;28;20059;-60
2024/01/14 02:02:14;;;;;;;7.30;3.08;;;;;;;;;;5091426;28;20530;-60
2024/01/14 02:04:40;;;;;;;5.53;3.17;;;;;;;;;;5091725;28;20036;-60
2024/01/14 02:07:06;;;;;;;3.58;2.65;;;;;;;;;;5091296;28;20059;-60
2024/01/14 02:09:32;;;;;;;4.40;2.17;;;;;;;;;;5091465;28;20397;-60
2024/01/14 02:11:58;;;;;;;8.68;2.72;;;;;;;;;;5089985;28;20044;-59
2024/01/14 02:14:24;;;;;;;5.68;2.72;;;;;;;;;;5093914;28;20026;-58
2024/01/14 02:16:51;;;;;;;2.25;1.73;;;;;;;;;;5095012;28;20036;-59
2024/01/14 02:19:17;;;;;;;7.40;3.10;;;;;;;;;;5095396;28;20532;-60
2024/01/14 02:21:45;;;;;;;6.10;3.22;;;;;;;;;;5094804;28;20032;-59
2024/01/14 02:24:20;;;;;;;4.25;2.83;;;;;;;;;;5094034;28;20040;-59
2024/01/14 02:26:46;;;;;;;4.22;2.65;;;;;;;;;;5094190;28;20040;-60
2024/01/14 02:29:13;;;;;;;6.38;1.75;;;;;;;;;;5095231;28;20032;-57
2024/01/14 02:31:38;;;;;;;8.02;2.50;;;;;;;;;;5093548;28;20478;-60
2024/01/14 02:34:06;;;;;;;4.72;2.53;;;;;;;;;;5095262;28;20119;-60
2024/01/14 02:36:33;;;;;;;1.67;1.60;;;;;;;;;;5094105;28;20035;-59
2024/01/14 02:38:58;;;;;;;2.47;2.28;;;;;;;;;;5093463;28;20028;-58
2024/01/14 02:41:24;;;;;;;3.38;2.50;;;;;;;;;;5092737;28;20048;-61
2024/01/14 02:43:50;;;;;;;4.75;2.60;;;;;;;;;;5094623;28;20066;-59
2024/01/14 02:46:16;;;;;;;5.18;2.90;;;;;;;;;;5093769;28;20036;-61
2024/01/14 02:48:41;;;;;;;5.88;2.10;;;;;;;;;;5094567;28;20036;-60
2024/01/14 02:51:07;;;;;;;4.68;2.85;;;;;;;;;;5094308;28;20525;-61
2024/01/14 02:53:32;;;;;;;2.00;1.80;;;;;;;;;;5094216;28;20035;-60
2024/01/14 02:55:58;;;;;;;3.78;2.33;;;;;;;;;;5094484;28;20071;-60
2024/01/14 02:58:23;;;;;;;4.32;2.63;;;;;;;;;;5093928;28;20036;-59
2024/01/14 03:00:49;;;;;;;2.15;2.00;;;;;;;;;;5093934;28;20043;-60
2024/01/14 03:03:15;;;;;;;3.78;2.47;;;;;;;;;;5094137;28;20414;-58
2024/01/14 03:05:40;;;;;;;7.72;2.65;;;;;;;;;;5093524;28;20402;-59
2024/01/14 03:08:06;;;;;;;2.50;2.25;;;;;;;;;;5094409;28;20135;-59
2024/01/14 03:10:31;;;;;;;5.05;2.95;;;;;;;;;;5094233;28;20440;-61
2024/01/14 03:12:57;;;;;;;4.05;3.00;;;;;;;;;;5092636;28;20040;-59
2024/01/14 03:15:22;;;;;;;6.25;2.28;;;;;;;;;;5092465;28;20035;-61
2024/01/14 03:17:48;;;;;;;3.75;2.80;;;;;;;;;;5094019;28;20032;-59
2024/01/14 03:20:14;;;;;;;4.25;2.25;;;;;;;;;;5093746;28;20067;-59
2024/01/14 03:22:39;;;;;;;6.82;3.10;;;;;;;;;;5094148;28;20043;-60
2024/01/14 03:25:05;;;;;;;4.13;2.20;;;;;;;;;;5093763;28;20047;-60
2024/01/14 03:27:31;;;;;;;6.03;2.95;;;;;;;;;;5093725;28;20028;-59
2024/01/14 03:29:57;;;;;;;8.05;3.28;;;;;;;;;;5092472;28;20024;-60
2024/01/14 03:32:22;;;;;;;4.50;1.95;;;;;;;;;;5093528;28;20063;-59
2024/01/14 03:34:48;;;;;;;3.08;2.60;;;;;;;;;;5094288;28;20127;-59
2024/01/14 03:37:13;;;;;;;3.35;2.17;;;;;;;;;;5094053;28;20401;-60
2024/01/14 03:39:39;;;;;;;3.53;2.95;;;;;;;;;;5094043;28;20482;-59
2024/01/14 03:42:04;;;;;;;5.38;3.50;;;;;;;;;;5092041;28;20043;-61
2024/01/14 03:44:30;;;;;;;6.65;3.13;;;;;;;;;;5093605;28;20028;-60
2024/01/14 03:46:55;;;;;;;3.15;2.10;;;;;;;;;;5093342;28;20459;-59
2024/01/14 03:49:21;;;;;;;6.40;3.75;;;;;;;;;;5093407;28;20032;-58
2024/01/14 03:51:46;;;;;;;6.20;3.03;;;;;;;;;;5093373;28;20089;-61
2024/01/14 03:54:12;;;;;;;4.10;2.65;;;;;;;;;;5092090;28;20058;-59
2024/01/14 03:56:38;;;;;;;4.47;2.83;;;;;;;;;;5093221;28;20078;-60
2024/01/14 03:59:03;;;;;;;4.25;2.75;;;;;;;;;;5092993;28;20032;-59
2024/01/14 04:01:29;;;;;;;4.72;2.85;;;;;;;;;;5092081;28;20031;-60
2024/01/14 04:03:55;;;;;;;3.75;2.58;;;;;;;;;;5093375;28;20032;-60
2024/01/14 04:06:20;;;;;;;3.78;2.55;;;;;;;;;;5093241;28;20566;-59
2024/01/14 04:08:46;;;;;;;8.45;2.72;;;;;;;;;;5093559;28;20032;-60
2024/01/14 04:11:12;;;;;;;9.63;3.35;;;;;;;;;;5093438;28;20154;-60
2024/01/14 04:13:37;;;;;;;3.30;2.78;;;;;;;;;;5093238;28;20390;-58
2024/01/14 04:16:03;;;;;;;3.53;2.42;;;;;;;;;;5093066;28;20064;-60
2024/01/14 04:18:29;;;;;;;5.82;2.80;;;;;;;;;;5093216;28;20043;-58
2024/01/14 04:20:55;;;;;;;2.97;2.63;;;;;;;;;;5091966;28;20616;-61
2024/01/14 04:23:20;;;;;;;4.68;3.17;;;;;;;;;;5092609;28;20024;-60
2024/01/14 04:25:46;;;;;;;4.72;3.47;;;;;;;;;;5093204;28;20036;-58
2024/01/14 04:28:11;;;;;;;4.28;3.28;;;;;;;;;;5092866;28;20032;-59
2024/01/14 04:30:37;;;;;;;6.93;2.78;;;;;;;;;;5092893;28;20044;-59
2024/01/14 04:33:02;;;;;;;7.20;3.08;;;;;;;;;;5091560;28;20055;-59
2024/01/14 04:35:28;;;;;;;9.93;3.95;;;;;;;;;;5090789;28;20430;-59
2024/01/14 04:37:54;;;;;;;7.15;3.45;;;;;;;;;;5092326;28;20032;-59
2024/01/14 04:40:19;;;;;;;6.10;2.83;;;;;;;;;;5092464;28;20048;-58
2024/01/14 04:42:45;;;;;;;2.42;2.00;;;;;;;;;;5092734;28;20028;-59
2024/01/14 04:45:10;;;;;;;3.00;2.55;;;;;;;;;;5092762;28;20119;-61
2024/01/14 04:47:36;;;;;;;6.35;2.88;;;;;;;;;;5092603;28;20493;-60
2024/01/14 04:50:01;;;;;;;6.60;3.05;;;;;;;;;;5092328;28;20119;-61
2024/01/14 04:52:28;;;;;;;5.40;3.33;;;;;;;;;;5091275;28;20044;-61
2024/01/14 04:54:53;;;;;;;8.73;3.90;;;;;;;;;;5092775;28;20084;-61
2024/01/14 04:57:19;;;;;;;4.28;3.35;;;;;;;;;;5092375;28;20127;-60
2024/01/14 04:59:45;;;;;;;3.67;2.63;;;;;;;;;;5092451;28;20496;-61
2024/01/14 05:02:10;;;;;;;10.05;4.32;;;;;;;;;;5091273;28;20040;-59
2024/01/14 05:04:36;;;;;;;4.03;2.80;;;;;;;;;;5073885;28;20516;-61
2024/01/14 05:07:01;;;;;;;11.07;3.50;;;;;;;;;;5092143;28;20055;-59
2024/01/14 05:09:27;;;;;;;5.43;3.33;;;;;;;;;;5092206;28;20036;-59
2024/01/14 05:11:52;;;;;;;7.00;3.35;;;;;;;;;;5092092;28;20036;-62
2024/01/14 05:14:18;;;;;;;9.23;4.82;;;;;;;;;;5090789;28;20032;-59
2024/01/14 05:16:44;;;;;;;6.43;3.67;;;;;;;;;;5090780;28;20130;-61
2024/01/14 05:19:09;;;;;;;8.18;3.92;;;;;;;;;;5092325;28;20036;-60
2024/01/14 05:21:35;;;;;;;6.97;3.55;;;;;;;;;;5091853;28;20064;-60
2024/01/14 05:24:01;;;;;;;12.68;4.18;;;;;;;;;;5092115;28;20485;-60
2024/01/14 05:26:26;;;;;;;7.25;3.95;;;;;;;;;;5089758;28;20064;-60
2024/01/14 05:28:54;;;;;;;11.65;3.75;;;;;;;;;;5091882;28;20032;-58
2024/01/14 05:31:20;;;;;;;5.90;3.50;;;;;;;;;;5090514;28;20044;-59
2024/01/14 05:33:45;;;;;;;5.00;3.30;;;;;;;;;;5091867;28;20032;-61
2024/01/14 05:36:11;;;;;;;4.07;3.20;;;;;;;;;;5091979;28;20032;-60
2024/01/14 05:38:36;;;;;;;8.50;3.90;;;;;;;;;;5090608;28;20556;-60
2024/01/14 05:41:02;;;;;;;8.05;3.95;;;;;;;;;;5091268;28;20136;-59
2024/01/14 05:43:28;;;;;;;9.85;4.53;;;;;;;;;;5091683;28;20027;-58
2024/01/14 05:45:53;;;;;;;7.82;3.92;;;;;;;;;;5091448;28;20059;-62
2024/01/14 05:48:19;;;;;;;13.20;4.75;;;;;;;;;;5089925;28;20387;-57
2024/01/14 05:50:45;;;;;;;8.10;4.13;;;;;;;;;;5089376;28;20059;-61
2024/01/14 05:53:10;;;;;;;6.57;4.22;;;;;;;;;;5090409;28;20108;-60
2024/01/14 05:55:36;;;;;;;9.88;4.15;;;;;;;;;;5091239;28;20043;-61
2024/01/14 05:58:02;;;;;;;10.77;4.82;;;;;;;;;;5091026;28;20150;-59
2024/01/14 06:00:27;;;;;;;7.85;4.38;;;;;;;;;;5089210;28;20113;-62
2024/01/14 06:02:53;;;;;;;13.82;6.28;;;;;;;;;;5071482;28;20501;-61
2024/01/14 06:05:19;;;;;;;7.72;4.28;;;;;;;;;;5083179;28;20191;-59
2024/01/14 06:07:44;;;;;;;6.15;3.72;;;;;;;;;;5091332;28;20075;-60
2024/01/14 06:10:10;;;;;;;8.35;5.07;;;;;;;;;;5090781;28;20273;-60
2024/01/14 06:12:35;;;;;;;10.98;5.00;;;;;;;;;;5091128;28;20089;-60
2024/01/14 06:15:01;;;;;;;11.82;5.43;;;;;;;;;;5090716;28;20043;-60
2024/01/14 06:17:27;;;;;;;11.48;5.57;;;;;;;;;;5090211;28;20040;-60
2024/01/14 06:19:53;;;;;;;10.93;5.18;;;;;;;;;;5090726;28;20040;-58
2024/01/14 06:22:18;;;;;;;9.68;4.90;;;;;;;;;;5090352;28;20020;-59
2024/01/14 06:24:44;;;;;;;7.20;4.97;;;;;;;;;;5089595;28;20043;-62
2024/01/14 06:27:10;;;;;;;10.10;5.47;;;;;;;;;;5089467;28;20073;-58
2024/01/14 06:29:36;;;;;;;5.47;4.10;;;;;;;;;;5090870;28;20398;-59
2024/01/14 06:32:01;;;;;;;9.10;4.50;;;;;;;;;;5082204;28;20059;-64
2024/01/14 06:34:27;;;;;;;7.55;5.20;;;;;;;;;;5066209;28;20413;-60
2024/01/14 06:36:53;;;;;;;8.02;4.30;;;;;;;;;;5087756;28;20409;-59
2024/01/14 06:39:18;;;;;;;7.18;4.63;;;;;;;;;;5090823;28;20033;-59
2024/01/14 06:41:44;;;;;;;8.23;4.57;;;;;;;;;;5090791;28;20040;-62
2024/01/14 06:44:09;;;;;;;10.40;5.20;;;;;;;;;;5091200;28;20032;-60
2024/01/14 06:46:40;;;;;;;14.23;5.68;;;;;;;;;;5090645;28;20036;-57
2024/01/14 06:49:06;;;;;;;9.25;5.10;;;;;;;;;;5085373;28;20051;-61
2024/01/14 06:51:31;;;;;;;9.63;4.60;;;;;;;;;;5090688;28;20482;-61
2024/01/14 06:53:57;;;;;;;9.88;5.57;;;;;;;;;;5090039;28;20035;-59
2024/01/14 06:56:22;;;;;;;15.77;5.55;;;;;;;;;;5089930;28;20058;-62
2024/01/14 06:58:50;;;;;;;8.40;5.38;;;;;;;;;;5090924;28;20040;-61
2024/01/14 07:01:15;;;;;;;7.68;5.03;;;;;;;;;;5094037;28;20080;-61
2024/01/14 07:03:41;;;;;;;7.05;4.55;;;;;;;;;;5075045;28;20059;-64
2024/01/14 07:06:07;;;;;;;15.25;5.13;;;;;;;;;;5086339;28;20176;-60
2024/01/14 07:08:32;;;;;;;15.38;6.45;;;;;;;;;;5094124;28;20052;-59
2024/01/14 07:11:00;;;;;;;13.55;5.47;;;;;;;;;;5094044;28;20541;-63
2024/01/14 07:13:26;;;;;;;10.80;5.30;;;;;;;;;;5093651;28;20119;-61
2024/01/14 07:15:51;;;;;;;9.63;5.00;;;;;;;;;;5093881;28;20111;-62
2024/01/14 07:18:17;;;;;;;8.23;4.78;;;;;;;;;;5091231;28;20549;-61
2024/01/14 07:20:42;;;;;;;11.20;6.07;;;;;;;;;;5093788;28;20567;-61
2024/01/14 07:23:08;;;;;;;9.45;5.25;;;;;;;;;;5088867;28;20032;-61
2024/01/14 07:25:34;;;;;;;13.25;5.60;;;;;;;;;;5089878;28;20040;-61
2024/01/14 07:28:02;;;;;;;15.77;6.05;;;;;;;;;;5091750;28;20039;-61
2024/01/14 07:30:28;;;;;;;11.68;5.75;;;;;;;;;;5092891;28;20036;-61
2024/01/14 07:32:54;;;;;;;7.53;4.25;;;;;;;;;;5092948;28;20078;-59
2024/01/14 07:35:19;;;;;;;14.57;5.78;;;;;;;;;;5093784;28;20043;-58
2024/01/14 07:37:45;;;;;;;14.00;5.57;;;;;;;;;;5093739;28;20022;-64
2024/01/14 07:40:11;;;;;;;9.13;5.88;;;;;;;;;;5093220;28;20044;-60
2024/01/14 07:42:37;;;;;;;12.05;5.35;;;;;;;;;;5093042;28;20047;-62
2024/01/14 07:45:03;;;;;;;17.15;6.95;;;;;;;;;;5092188;28;20094;-62
2024/01/14 07:47:30;;;;;;;10.15;6.10;;;;;;;;;;5092792;28;20028;-62
2024/01/14 07:49:56;;;;;;;13.80;6.10;;;;;;;;;;5087571;28;20032;-60
2024/01/14 07:52:21;;;;;;;6.47;4.35;;;;;;;;;;5091973;28;20047;-61
2024/01/14 07:54:47;;;;;;;12.40;5.68;;;;;;;;;;5092643;28;20472;-61
2024/01/14 07:57:12;;;;;;;14.23;6.45;;;;;;;;;;5093405;28;20028;-63
2024/01/14 07:59:38;;;;;;;13.32;6.10;;;;;;;;;;5092683;28;20105;-59
2024/01/14 08:02:04;;;;;;;10.27;5.68;;;;;;;;;;5092986;28;20082;-61
2024/01/14 08:04:29;;;;;;;17.27;6.75;;;;;;;;;;5092544;28;20032;-60
2024/01/14 08:06:55;;;;;;;7.80;5.10;;;;;;;;;;5092902;28;20060;-61
2024/01/14 08:09:22;;;;;;;13.05;6.45;;;;;;;;;;5092555;28;20045;-60
2024/01/14 08:11:47;;;;;;;12.82;7.05;;;;;;;;;;5092681;28;20494;-60
2024/01/14 08:14:13;;;;;;;15.52;9.13;;;;;;;;;;5092842;28;20035;-60
2024/01/14 08:16:39;;;;;;;15.70;9.20;;;;;;;;;;5091833;28;20036;-64
2024/01/14 08:19:04;;;;;;;12.43;6.45;;;;;;;;;;5091719;28;20032;-60
2024/01/14 08:21:30;;;;;;;11.23;6.00;;;;;;;;;;5092635;28;20040;-60
2024/01/14 08:23:56;;;;;;;23.58;8.45;;;;;;;;;;5092555;28;20520;-60
2024/01/14 08:26:21;;;;;;;13.63;6.97;;;;;;;;;;5092515;28;20085;-62
2024/01/14 08:28:47;;;;;;;21.73;7.53;;;;;;;;;;5091027;28;20463;-61
2024/01/14 08:31:13;;;;;;;12.15;6.40;;;;;;;;;;5091069;28;20457;-59
2024/01/14 08:33:42;;;;;;;10.35;7.07;;;;;;;;;;5091948;28;20467;-58
2024/01/14 08:36:08;;;;;;;14.10;7.33;;;;;;;;;;5091741;28;20039;-59
2024/01/14 08:38:35;;;;;;;14.77;6.45;;;;;;;;;;5090275;28;20450;-61
2024/01/14 08:41:00;;;;;;;21.85;9.15;;;;;;;;;;5092149;28;20083;-61
2024/01/14 08:43:26;;;;;;;25.10;10.60;;;;;;;;;;5073235;28;20407;-59
2024/01/14 08:45:52;;;;;;;16.00;7.97;;;;;;;;;;5082400;28;20046;-62
2024/01/14 08:48:17;;;;;;;11.48;6.90;;;;;;;;;;5091574;28;20055;-60
2024/01/14 08:50:43;;;;;;;12.90;6.88;;;;;;;;;;5091906;28;20047;-62
2024/01/14 08:53:08;;;;;;;17.02;7.70;;;;;;;;;;5090894;28;20476;-59
2024/01/14 08:55:34;;;;;;;15.82;7.85;;;;;;;;;;5091910;28;20480;-63
2024/01/14 08:58:00;;;;;;;18.15;8.05;;;;;;;;;;5091674;28;20147;-60
2024/01/14 09:00:25;;;;;;;10.63;6.85;;;;;;;;;;5090869;28;20544;-59
2024/01/14 09:02:51;;;;;;;16.98;6.93;;;;;;;;;;5089171;28;20056;-61
2024/01/14 09:05:17;;;;;;;16.08;7.35;;;;;;;;;;5089390;28;20040;-57
2024/01/14 09:07:42;;;;;;;16.05;6.70;;;;;;;;;;5089888;28;20052;-60
2024/01/14 09:10:08;;;;;;;12.82;7.43;;;;;;;;;;5091257;28;20036;-61
2024/01/14 09:12:33;;;;;;;12.10;6.68;;;;;;;;;;5090523;28;20028;-62
2024/01/14 09:14:59;;;;;;;11.55;6.97;;;;;;;;;;5090180;28;20035;-60
2024/01/14 09:17:25;;;;;;;14.13;7.35;;;;;;;;;;5090466;28;20043;-62
2024/01/14 09:19:50;;;;;;;11.32;6.82;;;;;;;;;;5090961;28;20050;-60
2024/01/14 09:22:16;;;;;;;12.55;6.82;;;;;;;;;;5090442;28;20040;-61
2024/01/14 09:24:45;;;;;;;10.70;6.95;;;;;;;;;;5091920;28;20035;-62
2024/01/14 09:27:12;;;;;;;16.00;7.25;;;;;;;;;;5091133;28;20043;-61
2024/01/14 09:29:38;;;;;;;14.20;7.43;;;;;;;;;;5091801;28;20067;-61
2024/01/14 09:32:04;;;;;;;16.70;7.68;;;;;;;;;;5089802;28;20059;-63
2024/01/14 09:34:30;;;;;;;15.20;7.72;;;;;;;;;;5091325;28;20043;-59
2024/01/14 09:36:55;;;;;;;13.00;7.40;;;;;;;;;;5091097;28;20028;-61
2024/01/14 09:39:21;;;;;;;14.50;7.68;;;;;;;;;;5072816;28;20040;-57
2024/01/14 09:41:54;;;;;;;10.55;6.85;;;;;;;;;;5090086;28;20036;-60
2024/01/14 09:44:29;;;;;;;12.52;6.43;;;;;;;;;;5052490;28;20409;-58
2024/01/14 09:46:55;;;;;;;12.45;7.43;;;;;;;;;;5084950;28;20028;-60
2024/01/14 09:49:21;;;;;;;13.38;7.60;;;;;;;;;;5075932;28;20108;-60
2024/01/14 09:51:49;;;;;;;19.40;9.70;;;;;;;;;;5091207;28;20038;-61
2024/01/14 09:54:15;;;;;;;13.35;7.80;;;;;;;;;;5090707;28;20127;-57
2024/01/14 09:56:42;;;;;;;16.17;8.05;;;;;;;;;;5091646;28;20115;-60
2024/01/14 09:59:09;;;;;;;14.77;7.85;;;;;;;;;;5091146;28;20056;-60
2024/01/14 10:01:36;;;;;;;19.50;7.70;;;;;;;;;;5090636;28;20040;-62
2024/01/14 10:04:02;;;;;;;18.70;8.55;;;;;;;;;;5091171;28;20047;-58
2024/01/14 10:06:28;;;;;;;18.27;8.40;;;;;;;;;;5090238;28;20096;-58
2024/01/14 10:08:54;;;;;;;17.92;8.60;;;;;;;;;;5091372;28;20036;-60
2024/01/14 10:11:20;;;;;;;17.35;7.63;;;;;;;;;;5090028;28;20051;-60
2024/01/14 10:13:46;;;;;;;17.95;9.15;;;;;;;;;;5090653;28;20040;-59
2024/01/14 10:16:12;;;;;;;18.95;8.70;;;;;;;;;;5091249;28;20127;-59
2024/01/14 10:18:37;;;;;;;18.33;8.80;;;;;;;;;;5090910;28;20143;-59
2024/01/14 10:21:03;;;;;;;18.30;8.57;;;;;;;;;;5091858;28;20044;-62
2024/01/14 10:23:30;;;;;;;18.00;8.00;;;;;;;;;;5091844;28;20036;-59
2024/01/14 10:26:01;;;;;;;19.63;9.60;;;;;;;;;;5092674;28;20040;-60
2024/01/14 10:28:34;;;;;;;16.20;8.60;;;;;;;;;;5092281;28;20397;-61
2024/01/14 10:31:02;;;;;;;19.77;8.45;;;;;;;;;;5068427;28;20033;-58
2024/01/14 10:33:32;;;;;;;16.70;9.02;;;;;;;;;;5075946;28;20119;-59
2024/01/14 10:35:58;;;;;;;13.55;7.35;;;;;;;;;;5094880;28;20462;-60
2024/01/14 10:38:25;;;;;;;18.33;8.40;;;;;;;;;;5093129;28;20039;-59
2024/01/14 10:40:50;;;;;;;17.10;8.40;;;;;;;;;;5095106;28;20131;-60
2024/01/14 10:43:16;;;;;;;13.57;7.82;;;;;;;;;;5095800;28;20052;-59
2024/01/14 10:45:42;;;;;;;19.25;8.10;;;;;;;;;;5095284;28;20081;-60
2024/01/14 10:48:15;;;;;;;11.05;7.43;;;;;;;;;;5094479;28;20035;-58
2024/01/14 10:50:42;;;;;;;18.50;8.55;;;;;;;;;;5093152;28;20032;-58
2024/01/14 10:53:13;;;;;;;19.50;8.43;;;;;;;;;;5091802;28;20032;-59
2024/01/14 10:55:44;;;;;;;18.73;7.60;;;;;;;;;;5072195;28;20056;-59
2024/01/14 10:58:17;;;;;;;21.25;8.80;;;;;;;;;;5079294;28;20070;-58
2024/01/14 11:00:46;;;;;;;16.48;8.98;;;;;;;;;;5091585;28;20058;-60
2024/01/14 11:03:11;;;;;;;20.05;9.90;;;;;;;;;;5092211;28;20027;-59
2024/01/14 11:05:37;;;;;;;17.42;8.85;;;;;;;;;;5093707;28;20362;-59
2024/01/14 11:08:03;;;;;;;16.75;9.27;;;;;;;;;;5094031;28;20063;-59
2024/01/14 11:10:30;;;;;;;23.75;9.32;;;;;;;;;;5094170;28;20043;-60
2024/01/14 11:12:55;;;;;;;16.85;9.52;;;;;;;;;;5094102;28;20032;-58
2024/01/14 11:15:28;;;;;;;19.27;9.05;;;;;;;;;;5092609;28;20039;-60
2024/01/14 11:17:57;;;;;;;16.40;8.68;;;;;;;;;;5094435;28;20405;-60
2024/01/14 11:20:27;;;;;;;18.95;9.45;;;;;;;;;;5093352;28;20043;-60
2024/01/14 11:22:53;;;;;;;19.00;9.00;;;;;;;;;;5093432;28;20055;-58
2024/01/14 11:25:21;;;;;;;15.30;8.98;;;;;;;;;;5093329;28;20502;-59
2024/01/14 11:27:46;;;;;;;18.30;9.38;;;;;;;;;;5094090;28;20535;-60
2024/01/14 11:30:16;;;;;;;17.67;9.75;;;;;;;;;;5093713;28;20082;-59
2024/01/14 11:32:42;;;;;;;24.20;10.18;;;;;;;;;;5068311;28;20028;-60
2024/01/14 11:35:09;;;;;;;16.40;9.35;;;;;;;;;;5076306;28;20523;-60
2024/01/14 11:37:35;;;;;;;22.30;9.55;;;;;;;;;;5093732;28;20517;-60
2024/01/14 11:40:08;;;;;;;17.20;9.15;;;;;;;;;;5093347;28;20429;-62
2024/01/14 11:42:34;;;;;;;20.30;8.38;;;;;;;;;;5093912;28;20127;-59
2024/01/14 11:45:00;;;;;;;17.95;8.57;;;;;;;;;;5092085;28;20032;-60
2024/01/14 11:47:45;;;;;;;18.33;8.77;;;;;;;;;;5089165;28;20400;-59
2024/01/14 11:50:13;;;;;;;18.88;9.68;;;;;;;;;;5093660;28;20123;-61
2024/01/14 11:52:43;;;;;;;20.38;9.65;;;;;;;;;;5091855;28;20036;-59
2024/01/14 11:55:12;;;;;;;18.50;8.57;;;;;;;;;;5093626;28;20032;-61
2024/01/14 11:57:38;;;;;;;19.45;9.98;;;;;;;;;;5074118;28;20028;-58
2024/01/14 12:00:05;;;;;;;16.65;9.70;;;;;;;;;;5091130;28;20604;-60
2024/01/14 12:02:35;;;;;;;19.58;10.55;;;;;;;;;;5092586;28;20032;-59
2024/01/14 12:05:16;;;;;;;21.60;10.68;;;;;;;;;;5092618;28;20551;-60
2024/01/14 12:07:42;;;;;;;14.15;8.63;;;;;;;;;;5090512;28;20068;-60
2024/01/14 12:10:12;;;;;;;25.30;10.63;;;;;;;;;;5093289;28;20040;-60
2024/01/14 12:12:37;;;;;;;21.80;9.85;;;;;;;;;;5093041;28;20126;-59
2024/01/14 12:15:03;;;;;;;20.20;9.52;;;;;;;;;;5093380;28;20119;-59
2024/01/14 12:17:31;;;;;;;23.70;9.70;;;;;;;;;;5092306;28;20032;-60
2024/01/14 12:20:00;;;;;;;15.52;8.07;;;;;;;;;;5093255;28;20036;-60
2024/01/14 12:22:26;;;;;;;19.70;9.70;;;;;;;;;;5092794;28;20043;-58
2024/01/14 12:24:51;;;;;;;19.92;10.43;;;;;;;;;;5092847;28;20452;-59
2024/01/14 12:27:17;;;;;;;20.67;11.05;;;;;;;;;;5092857;28;20489;-60
2024/01/14 12:29:42;;;;;;;19.77;10.35;;;;;;;;;;5093232;28;20032;-60
2024/01/14 12:32:09;;;;;;;19.00;9.35;;;;;;;;;;5092949;28;20043;-61
2024/01/14 12:34:37;;;;;;;17.63;9.27;;;;;;;;;;5091680;28;20080;-60
2024/01/14 12:37:03;;;;;;;21.13;11.07;;;;;;;;;;5092765;28;20173;-58
2024/01/14 12:39:28;;;;;;;21.23;9.75;;;;;;;;;;5092048;28;20123;-60
2024/01/14 12:41:55;;;;;;;25.23;10.75;;;;;;;;;;5092766;28;20055;-61
2024/01/14 12:44:20;;;;;;;20.08;9.68;;;;;;;;;;5092672;28;20032;-60
2024/01/14 12:46:52;;;;;;;19.30;9.93;;;;;;;;;;5092786;28;20144;-60
2024/01/14 12:49:20;;;;;;;23.05;10.80;;;;;;;;;;5092272;28;20117;-60
2024/01/14 12:51:46;;;;;;;17.08;9.57;;;;;;;;;;5073514;28;20042;-61
2024/01/14 12:54:17;;;;;;;17.50;9.30;;;;;;;;;;5092063;28;20032;-60
2024/01/14 12:56:56;;;;;;;19.48;10.13;;;;;;;;;;5090479;28;20043;-59
2024/01/14 12:59:21;;;;;;;16.52;9.02;;;;;;;;;;5091005;28;20077;-58
2024/01/14 13:01:47;;;;;;;24.35;10.18;;;;;;;;;;5091161;28;20032;-60
2024/01/14 13:04:13;;;;;;;19.10;8.90;;;;;;;;;;5091243;28;20039;-60
2024/01/14 13:06:38;;;;;;;18.05;10.00;;;;;;;;;;5092004;28;20074;-58
2024/01/14 13:09:04;;;;;;;19.05;9.50;;;;;;;;;;5091439;28;20498;-62
2024/01/14 13:11:30;;;;;;;22.17;10.43;;;;;;;;;;5091787;28;20034;-62
2024/01/14 13:13:57;;;;;;;24.23;10.10;;;;;;;;;;5091930;28;20115;-63
2024/01/14 13:16:23;;;;;;;20.80;10.20;;;;;;;;;;5091909;28;20050;-60
2024/01/14 13:18:49;;;;;;;17.85;10.02;;;;;;;;;;5092092;28;20118;-59
2024/01/14 13:21:14;;;;;;;18.60;10.18;;;;;;;;;;5091853;28;20512;-61
2024/01/14 13:23:40;;;;;;;19.50;10.20;;;;;;;;;;5089736;28;20060;-61
2024/01/14 13:26:05;;;;;;;22.17;10.18;;;;;;;;;;5090941;28;20036;-60
2024/01/14 13:28:31;;;;;;;19.95;10.32;;;;;;;;;;5091586;28;20035;-60
2024/01/14 13:30:57;;;;;;;21.83;9.90;;;;;;;;;;5092354;28;20124;-61
2024/01/14 13:33:22;;;;;;;22.00;9.65;;;;;;;;;;5091981;28;20036;-61
2024/01/14 13:35:48;;;;;;;17.70;9.20;;;;;;;;;;5090588;28;20546;-62
2024/01/14 13:38:13;;;;;;;21.40;9.27;;;;;;;;;;5090467;28;20094;-60
2024/01/14 13:40:39;;;;;;;22.35;10.93;;;;;;;;;;5084686;28;20039;-62
2024/01/14 13:43:04;;;;;;;21.27;9.25;;;;;;;;;;5091615;28;20042;-60
2024/01/14 13:45:31;;;;;;;15.40;8.38;;;;;;;;;;5091283;28;20036;-62
2024/01/14 13:47:57;;;;;;;16.70;9.60;;;;;;;;;;5091755;28;20169;-60
2024/01/14 13:50:23;;;;;;;20.48;9.57;;;;;;;;;;5089942;28;20040;-63
2024/01/14 13:52:48;;;;;;;13.65;7.38;;;;;;;;;;5087091;28;20024;-60
2024/01/14 13:55:14;;;;;;;16.58;8.48;;;;;;;;;;5079225;28;20112;-59
2024/01/14 13:57:42;;;;;;;17.00;9.45;;;;;;;;;;5090488;28;20028;-63
2024/01/14 14:00:08;;;;;;;21.15;8.77;;;;;;;;;;5091324;28;20051;-61
2024/01/14 14:02:34;;;;;;;22.80;10.13;;;;;;;;;;5091736;28;20067;-60
2024/01/14 14:05:00;;;;;;;19.27;9.40;;;;;;;;;;5090008;28;20034;-60
2024/01/14 14:07:29;;;;;;;16.08;9.70;;;;;;;;;;5091290;28;20060;-60
2024/01/14 14:09:55;;;;;;;19.13;10.02;;;;;;;;;;5095381;28;20035;-62
2024/01/14 14:12:20;;;;;;;20.45;9.48;;;;;;;;;;5095820;28;20031;-61
2024/01/14 14:14:46;;;;;;;20.17;9.93;;;;;;;;;;5093901;28;20517;-62
2024/01/14 14:17:11;;;;;;;20.25;10.00;;;;;;;;;;5095355;28;20462;-59
2024/01/14 14:19:37;;;;;;;21.13;10.02;;;;;;;;;;5094485;28;20497;-60
2024/01/14 14:22:03;;;;;;;19.70;9.75;;;;;;;;;;5095040;28;20343;-61
2024/01/14 14:24:31;;;;;;;16.02;8.68;;;;;;;;;;5094975;28;20497;-59
2024/01/14 14:26:57;;;;;;;21.02;9.18;;;;;;;;;;5093589;28;20407;-59
2024/01/14 14:29:22;;;;;;;19.98;9.93;;;;;;;;;;5094955;28;20032;-60